Time;durP1;ratioP1;P1;durP2;ratioP2;P2;SDS_P1;SDS_P2;PMS_P1;PMS_P2;Temp;Humidity;BMP_temperature;BMP_pressure;BME280_temperature;BME280_humidity;BME280_pressure;Samples;Min_cycle;Max_cycle;Signal;HPM_P1;HPM_P2
2023/05/31 00:01:07;;;;;;;4.97;3.60;;;;;;;14.28;61.68;100331.69;5115682;28;20027;-76
2023/05/31 00:03:33;;;;;;;7.22;3.65;;;;;;;14.25;61.78;100323.16;5116173;28;20049;-76
2023/05/31 00:05:58;;;;;;;7.13;3.63;;;;;;;14.41;61.52;100351.09;5115942;28;20020;-76
2023/05/31 00:08:23;;;;;;;4.95;3.40;;;;;;;14.25;61.55;100326.63;5115619;28;20031;-76
2023/05/31 00:10:49;;;;;;;7.05;3.83;;;;;;;14.44;61.38;100353.56;5115730;28;20475;-76
2023/05/31 00:13:14;;;;;;;5.97;3.20;;;;;;;14.32;61.39;100330.59;5115261;28;20028;-76
2023/05/31 00:15:40;;;;;;;5.13;3.45;;;;;;;14.48;61.22;100356.88;5115693;28;20110;-76
2023/05/31 00:18:05;;;;;;;5.65;3.55;;;;;;;14.32;61.18;100333.22;5115708;28;20367;-76
2023/05/31 00:20:31;;;;;;;5.95;3.03;;;;;;;14.37;61.53;100346.09;5115551;28;20480;-76
2023/05/31 00:22:56;;;;;;;6.40;2.85;;;;;;;14.32;61.48;100341.06;5115565;28;20486;-76
2023/05/31 00:25:21;;;;;;;4.50;2.95;;;;;;;14.27;62.35;100332.59;5115323;28;20019;-76
2023/05/31 00:27:47;;;;;;;5.10;3.03;;;;;;;14.33;62.42;100348.03;5115449;28;20027;-76
2023/05/31 00:30:12;;;;;;;7.38;3.50;;;;;;;14.34;62.06;100354.13;5115095;28;20019;-76
2023/05/31 00:32:38;;;;;;;7.22;3.30;;;;;;;14.37;61.40;100359.22;5115565;28;20028;-76
2023/05/31 00:35:04;;;;;;;4.68;2.88;;;;;;;14.38;61.83;100361.75;5115449;28;20031;-76
2023/05/31 00:37:29;;;;;;;7.93;2.92;;;;;;;14.32;61.85;100348.09;5115032;28;20463;-76
2023/05/31 00:39:55;;;;;;;6.78;3.45;;;;;;;14.35;61.90;100356.66;5115248;28;20016;-76
2023/05/31 00:42:20;;;;;;;5.68;3.40;;;;;;;14.21;61.28;100333.78;5114853;28;20027;-76
2023/05/31 00:44:45;;;;;;;7.43;3.75;;;;;;;14.19;62.12;100326.91;5114927;28;20028;-76
2023/05/31 00:47:11;;;;;;;7.00;3.28;;;;;;;14.32;61.56;100343.69;5115090;28;20023;-76
2023/05/31 00:49:36;;;;;;;6.43;3.45;;;;;;;14.18;61.47;100326.06;5114841;28;20042;-76
2023/05/31 00:52:02;;;;;;;7.15;3.65;;;;;;;14.36;61.56;100347.84;5115030;28;20031;-76
2023/05/31 00:54:28;;;;;;;6.05;3.72;;;;;;;14.21;61.10;100322.44;5114632;28;20562;-76
2023/05/31 00:56:54;;;;;;;8.90;3.78;;;;;;;14.22;61.14;100329.38;5114827;28;20093;-76
2023/05/31 00:59:20;;;;;;;6.25;3.65;;;;;;;14.26;60.91;100325.69;5114471;28;20408;-76
2023/05/31 01:01:45;;;;;;;6.63;3.58;;;;;;;14.42;60.82;100351.97;5115017;28;20020;-76
2023/05/31 01:04:11;;;;;;;9.63;3.47;;;;;;;14.31;60.89;100338.53;5114710;28;20081;-76
2023/05/31 01:06:39;;;;;;;8.00;3.38;;;;;;;14.28;61.04;100323.81;5114777;28;20031;-76
2023/05/31 01:09:07;;;;;;;5.75;3.47;;;;;;;14.27;60.59;100331.75;5114537;28;20036;-76
2023/05/31 01:11:51;;;;;;;8.27;3.72;;;;;;;14.43;60.80;100351.88;5114363;28;20034;-76
2023/05/31 01:14:24;;;;;;;5.82;3.40;;;;;;;14.45;60.81;100362.25;5114469;28;20082;-76
2023/05/31 01:17:05;;;;;;;6.63;3.25;;;;;;;14.40;60.68;100356.41;5114652;28;20547;-76
2023/05/31 01:19:48;;;;;;;6.43;3.42;;;;;;;14.27;60.62;100339.63;5114208;28;20433;-76
2023/05/31 01:22:23;;;;;;;10.15;4.35;;;;;;;14.39;60.54;100354.72;5114046;28;20012;-76
2023/05/31 01:25:10;;;;;;;10.68;4.82;;;;;;;14.31;60.65;100357.72;5114505;28;20035;-76
2023/05/31 01:27:37;;;;;;;10.93;5.50;;;;;;;14.27;61.19;100352.72;5114246;28;20028;-76
2023/05/31 01:30:05;;;;;;;12.05;5.90;;;;;;;14.02;61.65;100312.03;5114349;28;20106;-76
2023/05/31 01:32:31;;;;;;;10.65;5.25;;;;;;;14.01;62.02;100333.09;5060961;28;20522;-76
2023/05/31 01:34:57;;;;;;;10.00;5.68;;;;;;;14.09;62.72;100362.38;5114312;28;20039;-76
2023/05/31 01:37:22;;;;;;;14.68;6.75;;;;;;;13.96;63.32;100375.22;5113810;28;20068;-76
2023/05/31 01:39:48;;;;;;;12.30;6.68;;;;;;;13.87;63.61;100368.66;5114052;28;20051;-76
2023/05/31 01:42:14;;;;;;;16.17;7.47;;;;;;;13.59;64.23;100336.88;5113861;28;20054;-76
2023/05/31 01:44:41;;;;;;;15.07;7.40;;;;;;;13.52;64.68;100331.06;5114033;28;20034;-76
2023/05/31 01:47:08;;;;;;;11.48;7.22;;;;;;;13.39;65.71;100337.81;5113741;28;20069;-75
2023/05/31 01:49:36;;;;;;;14.07;7.07;;;;;;;13.30;66.53;100343.50;5060848;28;20040;-76
2023/05/31 01:52:05;;;;;;;11.18;6.68;;;;;;;13.36;66.87;100349.28;5113961;28;20026;-76
2023/05/31 01:54:30;;;;;;;15.98;7.65;;;;;;;13.27;67.47;100349.69;5113587;28;20130;-76
2023/05/31 01:56:56;;;;;;;16.00;6.97;;;;;;;13.32;68.33;100359.97;5113714;28;20213;-76
2023/05/31 01:59:22;;;;;;;10.68;6.55;;;;;;;13.41;68.74;100372.63;5113359;28;20038;-76
2023/05/31 02:01:48;;;;;;;11.70;7.18;;;;;;;13.33;69.69;100372.97;5112718;28;20032;-76
2023/05/31 02:04:18;;;;;;;15.70;8.00;;;;;;;13.35;70.08;100378.13;5113534;28;20027;-76
2023/05/31 02:06:43;;;;;;;13.52;8.10;;;;;;;13.15;70.74;100358.09;5113650;28;20020;-76
2023/05/31 02:09:08;;;;;;;12.38;8.15;;;;;;;13.04;70.97;100342.88;5113483;28;20040;-76
2023/05/31 02:11:34;;;;;;;12.45;7.63;;;;;;;13.25;71.19;100375.09;5113153;28;20063;-76
2023/05/31 02:13:59;;;;;;;13.05;7.70;;;;;;;13.10;71.36;100345.22;5113374;28;20039;-76
2023/05/31 02:16:25;;;;;;;16.85;8.75;;;;;;;13.23;71.55;100377.78;5112996;28;20019;-76
2023/05/31 02:18:51;;;;;;;14.50;8.75;;;;;;;13.16;71.37;100371.09;5113384;28;20115;-76
2023/05/31 02:21:16;;;;;;;11.70;7.97;;;;;;;13.17;70.99;100364.94;5113144;28;20102;-76
2023/05/31 02:23:42;;;;;;;13.25;7.40;;;;;;;13.02;70.65;100347.34;5113495;28;20055;-76
2023/05/31 02:26:08;;;;;;;14.07;7.10;;;;;;;13.26;69.97;100384.63;5113322;28;20019;-76
2023/05/31 02:28:33;;;;;;;14.05;7.32;;;;;;;13.14;69.59;100357.22;5113003;28;20114;-76
2023/05/31 02:31:00;;;;;;;11.23;6.82;;;;;;;13.14;69.26;100357.22;5113016;28;20058;-76
2023/05/31 02:33:26;;;;;;;10.20;6.05;;;;;;;13.28;69.14;100374.97;5112764;28;20063;-76
2023/05/31 02:35:52;;;;;;;10.10;6.28;;;;;;;13.29;68.91;100375.81;5113140;28;20122;-76
2023/05/31 02:38:19;;;;;;;8.00;6.25;;;;;;;13.21;68.80;100361.28;5112579;28;20514;-76
2023/05/31 02:40:44;;;;;;;12.40;6.55;;;;;;;13.19;68.47;100350.03;5112865;28;20441;-76
2023/05/31 02:43:10;;;;;;;9.52;6.13;;;;;;;13.25;68.49;100364.63;5113133;28;20027;-76
2023/05/31 02:45:35;;;;;;;10.45;6.18;;;;;;;13.17;68.84;100370.19;5112426;28;20031;-76
2023/05/31 02:48:04;;;;;;;9.63;5.72;;;;;;;13.18;68.74;100376.25;5112983;28;20031;-76
2023/05/31 02:50:30;;;;;;;7.68;5.40;;;;;;;13.14;69.00;100375.53;5112548;28;20023;-76
2023/05/31 02:52:55;;;;;;;12.45;6.68;;;;;;;13.05;69.04;100351.59;5112751;28;20037;-76
2023/05/31 02:55:21;;;;;;;10.32;5.95;;;;;;;13.11;68.91;100370.47;5112438;28;20028;-76
2023/05/31 02:57:46;;;;;;;10.60;5.22;;;;;;;12.98;68.98;100354.50;5112508;28;20055;-76
2023/05/31 03:00:13;;;;;;;12.18;6.28;;;;;;;13.04;68.95;100360.34;5112740;28;20024;-76
2023/05/31 03:02:39;;;;;;;13.07;6.25;;;;;;;13.07;68.77;100360.22;5076490;28;20105;-76
2023/05/31 03:05:05;;;;;;;9.18;5.93;;;;;;;13.20;68.74;100379.66;5112666;28;20095;-76
2023/05/31 03:07:32;;;;;;;9.57;5.38;;;;;;;13.22;68.53;100377.81;5112290;28;20031;-76
2023/05/31 03:09:57;;;;;;;7.10;4.70;;;;;;;13.07;68.25;100352.38;5112801;28;20073;-76
2023/05/31 03:12:22;;;;;;;8.43;5.18;;;;;;;13.10;68.11;100358.28;5112182;28;20224;-76
2023/05/31 03:14:48;;;;;;;9.63;5.32;;;;;;;13.23;68.02;100371.69;5112532;28;20043;-76
2023/05/31 03:17:13;;;;;;;8.30;5.00;;;;;;;13.29;68.06;100381.03;5112328;28;20378;-76
2023/05/31 03:19:38;;;;;;;7.88;5.10;;;;;;;13.17;67.76;100364.94;5112311;28;20424;-76
2023/05/31 03:22:04;;;;;;;7.20;4.35;;;;;;;13.16;67.47;100362.41;5112672;28;20611;-76
2023/05/31 03:24:30;;;;;;;9.35;4.78;;;;;;;13.23;67.16;100359.47;5112032;28;20031;-76
2023/05/31 03:26:55;;;;;;;11.88;4.60;;;;;;;13.41;66.98;100381.31;5112198;28;20020;-76
2023/05/31 03:29:20;;;;;;;8.07;5.20;;;;;;;13.42;67.09;100376.94;5112189;28;20187;-76
2023/05/31 03:31:46;;;;;;;10.30;4.38;;;;;;;13.30;66.93;100360.03;5076233;28;20046;-76
2023/05/31 03:34:11;;;;;;;8.43;4.65;;;;;;;13.48;66.83;100381.88;5112289;28;20382;-76
2023/05/31 03:36:36;;;;;;;9.73;4.53;;;;;;;13.44;66.64;100383.81;5112070;28;20467;-76
2023/05/31 03:39:03;;;;;;;11.07;4.60;;;;;;;13.37;66.42;100355.38;5112296;28;20035;-76
2023/05/31 03:41:29;;;;;;;11.27;4.93;;;;;;;13.48;66.14;100367.03;5112097;28;20367;-76
2023/05/31 03:43:54;;;;;;;11.20;4.68;;;;;;;13.69;66.20;100386.13;5112170;28;20089;-76
2023/05/31 03:46:19;;;;;;;11.52;5.38;;;;;;;13.54;65.74;100347.56;5112174;28;20023;-76
2023/05/31 03:48:45;;;;;;;7.70;4.45;;;;;;;13.59;65.96;100344.72;5112260;28;20035;-76
2023/05/31 03:51:10;;;;;;;11.27;4.43;;;;;;;13.64;65.75;100361.06;5112100;28;20055;-76
2023/05/31 03:53:36;;;;;;;7.75;4.82;;;;;;;13.96;65.28;100362.97;5111850;28;20027;-76
2023/05/31 03:56:01;;;;;;;6.15;4.60;;;;;;;14.22;64.55;100368.69;5111913;28;20546;-76
2023/05/31 03:58:26;;;;;;;11.77;4.80;;;;;;;14.31;64.37;100377.84;5075565;28;20046;-76
2023/05/31 04:00:52;;;;;;;7.65;4.78;;;;;;;14.10;64.67;100353.56;5112205;28;20039;-76
2023/05/31 04:03:17;;;;;;;8.15;5.18;;;;;;;14.24;64.85;100374.69;5112063;28;20020;-76
2023/05/31 04:05:43;;;;;;;10.80;4.60;;;;;;;14.23;64.69;100342.38;5111814;28;20030;-76
2023/05/31 04:08:08;;;;;;;7.88;3.92;;;;;;;14.76;63.87;100358.94;5111971;28;20059;-76
2023/05/31 04:10:34;;;;;;;6.57;3.90;;;;;;;15.37;62.43;100357.41;5111645;28;20032;-76
2023/05/31 04:12:59;;;;;;;6.35;4.40;;;;;;;16.46;59.58;100352.03;5111854;28;20024;-76
2023/05/31 04:15:25;;;;;;;6.22;3.65;;;;;;;18.19;55.88;100367.47;5111836;28;20077;-76
2023/05/31 04:17:51;;;;;;;8.35;4.53;;;;;;;19.85;52.91;100372.59;5111626;28;20464;-76
2023/05/31 04:20:17;;;;;;;5.22;3.80;;;;;;;20.67;50.19;100354.94;5111819;28;20024;-76
2023/05/31 04:22:42;;;;;;;6.57;4.15;;;;;;;20.81;49.90;100380.31;5111519;28;20080;-77
2023/05/31 04:25:09;;;;;;;11.43;4.40;;;;;;;20.12;50.52;100385.56;5114439;28;20034;-77
2023/05/31 04:27:38;;;;;;;5.55;3.90;;;;;;;19.47;51.97;100362.13;5115154;28;20027;-77
2023/05/31 04:30:06;;;;;;;5.20;3.35;;;;;;;19.39;52.73;100382.03;5115493;28;20119;-76
2023/05/31 04:32:34;;;;;;;6.40;3.88;;;;;;;19.38;52.45;100376.84;5115147;28;20016;-76
2023/05/31 04:35:04;;;;;;;6.63;3.95;;;;;;;19.83;51.64;100383.25;5115078;28;20031;-77
2023/05/31 04:37:30;;;;;;;5.32;3.72;;;;;;;20.76;49.68;100363.97;5114906;28;20028;-77
2023/05/31 04:39:56;;;;;;;6.68;4.32;;;;;;;22.14;47.36;100386.41;5115212;28;20026;-77
2023/05/31 04:42:24;;;;;;;6.13;3.63;;;;;;;22.92;45.76;100373.63;5115116;28;20027;-77
2023/05/31 04:44:57;;;;;;;10.32;4.78;;;;;;;23.20;45.93;100382.69;5115283;28;20383;-77
2023/05/31 04:47:24;;;;;;;5.57;3.35;;;;;;;22.61;46.25;100362.13;5115050;28;20058;-77
2023/05/31 04:49:50;;;;;;;5.43;3.53;;;;;;;22.35;47.11;100383.78;5115225;28;20036;-77
2023/05/31 04:52:15;;;;;;;4.93;3.47;;;;;;;22.10;47.60;100384.09;5115109;28;20027;-77
2023/05/31 04:54:41;;;;;;;8.43;3.97;;;;;;;22.08;47.37;100380.72;5114613;28;20031;-77
2023/05/31 04:57:06;;;;;;;7.63;3.67;;;;;;;22.43;47.26;100385.78;5115332;28;20116;-77
2023/05/31 04:59:32;;;;;;;9.05;3.60;;;;;;;23.00;46.48;100365.84;5114673;28;20477;-77
2023/05/31 05:01:57;;;;;;;7.57;3.50;;;;;;;24.23;43.86;100368.13;5114766;28;20023;-77
2023/05/31 05:04:23;;;;;;;7.15;3.70;;;;;;;25.38;42.39;100361.63;5114644;28;20270;-77
2023/05/31 05:06:48;;;;;;;5.65;3.55;;;;;;;25.74;41.48;100372.34;5114509;28;20024;-77
2023/05/31 05:09:13;;;;;;;9.02;3.92;;;;;;;25.33;42.14;100379.91;5114574;28;20555;-77
2023/05/31 05:11:39;;;;;;;6.45;3.50;;;;;;;24.57;43.31;100365.91;5114602;28;20059;-77
2023/05/31 05:14:04;;;;;;;6.68;3.60;;;;;;;24.22;43.77;100372.63;5114490;28;20482;-77
2023/05/31 05:16:30;;;;;;;5.03;2.90;;;;;;;24.17;44.64;100384.69;5114426;28;20027;-77
2023/05/31 05:18:56;;;;;;;5.85;4.28;;;;;;;24.24;44.47;100377.81;5114409;28;20080;-77
2023/05/31 05:21:21;;;;;;;8.45;4.13;;;;;;;24.60;44.53;100363.75;5114367;28;20023;-77
2023/05/31 05:23:46;;;;;;;4.18;3.10;;;;;;;25.69;42.32;100363.13;5114102;28;20084;-77
2023/05/31 05:26:12;;;;;;;5.72;3.60;;;;;;;26.35;41.09;100363.56;5114624;28;20034;-78
2023/05/31 05:28:38;;;;;;;6.75;3.88;;;;;;;26.70;40.98;100374.31;5114254;28;20429;-78
2023/05/31 05:31:03;;;;;;;7.00;3.50;;;;;;;25.91;41.59;100344.00;5114282;28;20067;-78
2023/05/31 05:33:29;;;;;;;4.50;3.20;;;;;;;25.52;42.33;100362.09;5114099;28;20062;-77
2023/05/31 05:35:55;;;;;;;4.82;3.17;;;;;;;25.08;43.11;100367.25;5060347;28;20035;-77
2023/05/31 05:38:20;;;;;;;12.43;4.15;;;;;;;25.19;43.31;100379.56;5113949;28;20281;-77
2023/05/31 05:40:46;;;;;;;5.40;3.30;;;;;;;25.35;43.41;100372.59;5113639;28;20030;-78
2023/05/31 05:43:11;;;;;;;5.88;2.95;;;;;;;25.68;42.92;100362.28;5114384;28;20028;-78
2023/05/31 05:45:36;;;;;;;6.85;3.10;;;;;;;26.33;42.13;100370.03;5113770;28;20020;-77
2023/05/31 05:48:02;;;;;;;5.57;3.00;;;;;;;27.19;41.19;100377.28;5113933;28;20122;-78
2023/05/31 05:50:27;;;;;;;5.38;2.97;;;;;;;27.30;40.56;100375.13;5113617;28;20118;-78
2023/05/31 05:52:52;;;;;;;4.88;3.30;;;;;;;27.04;40.59;100361.81;5113774;28;20478;-78
2023/05/31 05:55:19;;;;;;;4.40;3.08;;;;;;;27.10;41.22;100374.56;5113790;28;20523;-78
2023/05/31 05:57:44;;;;;;;5.10;3.13;;;;;;;27.11;41.53;100381.59;5113601;28;20035;-78
2023/05/31 06:00:15;;;;;;;5.90;3.15;;;;;;;27.46;40.46;100365.50;5113834;28;20379;-78
2023/05/31 06:02:40;;;;;;;5.90;3.22;;;;;;;28.48;39.52;100364.25;5113430;28;20027;-78
2023/05/31 06:05:07;;;;;;;4.13;3.25;;;;;;;29.84;38.10;100383.69;5113585;28;20047;-78
2023/05/31 06:07:32;;;;;;;4.15;3.10;;;;;;;30.72;37.36;100377.75;5113188;28;20028;-78
2023/05/31 06:09:59;;;;;;;4.03;2.95;;;;;;;31.24;37.27;100368.72;5114023;28;20490;-78
2023/05/31 06:12:24;;;;;;;5.70;2.75;;;;;;;31.94;35.38;100385.25;5113484;28;20031;-78
2023/05/31 06:14:50;;;;;;;5.68;2.70;;;;;;;32.14;34.18;100394.38;5112973;28;20059;-78
2023/05/31 06:17:15;;;;;;;5.00;2.60;;;;;;;32.52;33.76;100375.19;5113248;28;20038;-78
2023/05/31 06:19:40;;;;;;;3.83;2.90;;;;;;;32.76;34.18;100371.22;5113286;28;20072;-78
2023/05/31 06:22:06;;;;;;;4.15;2.80;;;;;;;32.68;33.96;100376.78;5113092;28;20027;-78
2023/05/31 06:24:31;;;;;;;5.40;2.95;;;;;;;32.83;34.16;100388.28;5112793;28;20027;-78
2023/05/31 06:26:57;;;;;;;11.10;3.20;;;;;;;33.23;33.27;100391.19;5113103;28;20032;-79
2023/05/31 06:29:22;;;;;;;6.05;2.90;;;;;;;34.10;32.44;100395.00;5113080;28;20073;-79
2023/05/31 06:31:47;;;;;;;5.15;2.60;;;;;;;35.40;31.40;100377.91;5112843;28;20073;-76
2023/05/31 06:34:13;;;;;;;8.05;3.72;;;;;;;36.51;30.97;100387.38;5112984;28;20027;-76
2023/05/31 06:36:38;;;;;;;3.47;3.10;;;;;;;37.42;30.87;100375.72;5112556;28;20030;-76
2023/05/31 06:39:04;;;;;;;6.63;4.00;;;;;;;38.51;30.41;100386.34;5112706;28;20497;-76
2023/05/31 06:41:29;;;;;;;4.75;3.55;;;;;;;39.12;29.59;100378.72;5112739;28;20035;-76
2023/05/31 06:43:55;;;;;;;4.82;3.63;;;;;;;39.85;29.27;100372.50;5112867;28;20092;-76
2023/05/31 06:46:20;;;;;;;7.75;4.28;;;;;;;40.12;29.08;100375.44;5112543;28;20475;-76
2023/05/31 06:48:45;;;;;;;3.88;3.30;;;;;;;40.32;28.17;100371.34;5112438;28;20379;-76
2023/05/31 06:51:11;;;;;;;4.57;3.28;;;;;;;40.90;28.40;100383.66;5112675;28;20027;-76
2023/05/31 06:53:36;;;;;;;4.68;3.42;;;;;;;41.15;27.15;100374.97;5112343;28;20028;-77
2023/05/31 06:56:02;;;;;;;6.25;3.47;;;;;;;41.73;27.08;100381.59;5112698;28;20026;-77
2023/05/31 06:58:33;;;;;;;4.32;3.38;;;;;;;42.04;27.31;100376.41;5112747;28;20424;-77
2023/05/31 07:00:59;;;;;;;5.00;3.10;;;;;;;42.54;26.67;100375.13;5112621;28;20027;-77
2023/05/31 07:03:24;;;;;;;3.92;3.53;;;;;;;42.50;25.71;100369.34;5112561;28;20024;-76
2023/05/31 07:05:50;;;;;;;6.28;3.22;;;;;;;41.98;26.16;100378.28;5112139;28;20345;-76
2023/05/31 07:08:16;;;;;;;3.88;3.15;;;;;;;41.52;26.15;100372.38;5112563;28;20364;-77
2023/05/31 07:10:41;;;;;;;5.03;3.60;;;;;;;41.79;27.12;100385.22;5112347;28;20084;-77
2023/05/31 07:13:07;;;;;;;4.03;3.50;;;;;;;42.36;26.90;100379.97;5112362;28;20023;-77
2023/05/31 07:15:33;;;;;;;4.18;3.58;;;;;;;42.67;26.46;100371.13;5112242;28;20048;-77
2023/05/31 07:17:58;;;;;;;4.47;4.05;;;;;;;43.00;26.09;100373.44;5112477;28;20032;-76
2023/05/31 07:20:24;;;;;;;4.93;3.60;;;;;;;43.33;26.21;100371.38;5112303;28;20028;-77
2023/05/31 07:22:51;;;;;;;7.63;3.67;;;;;;;43.23;25.84;100354.91;5112147;28;20027;-77
2023/05/31 07:25:16;;;;;;;4.00;3.35;;;;;;;43.12;26.01;100369.69;5112613;28;20082;-77
2023/05/31 07:27:41;;;;;;;7.13;4.03;;;;;;;42.94;25.99;100363.59;5112385;28;20491;-77
2023/05/31 07:30:07;;;;;;;4.32;3.45;;;;;;;43.30;26.17;100360.97;5112174;28;20031;-77
2023/05/31 07:32:33;;;;;;;5.10;3.80;;;;;;;43.85;25.60;100364.09;5111960;28;20032;-77
2023/05/31 07:34:58;;;;;;;7.68;3.78;;;;;;;44.18;25.46;100355.25;5112442;28;20027;-77
2023/05/31 07:37:23;;;;;;;6.22;3.55;;;;;;;44.21;25.09;100359.38;5110981;28;20028;-77
2023/05/31 07:39:49;;;;;;;4.25;3.10;;;;;;;43.47;25.32;100342.34;5111802;28;20111;-77
2023/05/31 07:42:14;;;;;;;4.53;3.45;;;;;;;43.76;25.73;100342.66;5112267;28;20039;-77
2023/05/31 07:44:40;;;;;;;3.55;3.25;;;;;;;44.08;24.86;100339.63;5111931;28;20471;-77
2023/05/31 07:47:05;;;;;;;4.95;3.20;;;;;;;44.54;25.19;100357.94;5111707;28;20023;-77
2023/05/31 07:49:31;;;;;;;3.70;3.40;;;;;;;44.79;24.48;100357.03;5111782;28;20050;-77
2023/05/31 07:51:56;;;;;;;4.72;3.10;;;;;;;44.57;24.67;100349.97;5111611;28;20111;-77
2023/05/31 07:54:21;;;;;;;4.32;3.13;;;;;;;44.51;24.38;100336.53;5112263;28;20031;-77
2023/05/31 07:56:47;;;;;;;3.67;3.15;;;;;;;43.89;24.72;100333.06;5075505;28;20036;-77
2023/05/31 07:59:13;;;;;;;4.00;3.20;;;;;;;42.78;25.08;100338.03;5113335;28;20027;-77
2023/05/31 08:01:39;;;;;;;4.32;3.50;;;;;;;42.51;25.71;100348.28;5116101;28;20022;-76
2023/05/31 08:04:09;;;;;;;5.45;3.50;;;;;;;42.49;25.95;100345.81;5115896;28;20024;-76
2023/05/31 08:06:36;;;;;;;;;;;;;;;42.28;26.24;100346.78;5116232;28;20172;-76
2023/05/31 08:09:02;;;;;;;5.57;3.58;;;;;;;41.48;26.34;100334.88;5115901;28;19918;-76
2023/05/31 08:11:27;;;;;;;3.05;2.63;;;;;;;39.87;27.58;100315.81;5115831;28;20023;-76
2023/05/31 08:13:53;;;;;;;3.08;2.78;;;;;;;38.11;28.35;100342.69;5115491;28;20130;-76
2023/05/31 08:16:18;;;;;;;4.80;2.70;;;;;;;36.35;29.24;100333.66;5115755;28;20036;-75
2023/05/31 08:18:44;;;;;;;6.20;3.60;;;;;;;34.89;30.07;100332.72;5115319;28;20042;-75
2023/05/31 08:21:10;;;;;;;7.72;3.08;;;;;;;33.21;31.72;100318.53;5115513;28;20019;-77
2023/05/31 08:23:36;;;;;;;4.00;2.72;;;;;;;32.04;32.79;100323.81;5104755;28;20024;-78
2023/05/31 08:26:01;;;;;;;4.78;2.97;;;;;;;31.30;33.73;100314.16;5103783;28;20031;-78
2023/05/31 08:28:27;;;;;;;6.22;2.92;;;;;;;31.03;34.34;100315.69;5107246;28;20436;-78
2023/05/31 08:30:52;;;;;;;77.68;6.88;;;;;;;30.52;35.12;100310.22;5110505;28;20063;-78
2023/05/31 08:33:18;;;;;;;6.95;2.55;;;;;;;30.05;35.83;100303.28;5108692;28;20028;-78
2023/05/31 08:35:43;;;;;;;5.28;2.80;;;;;;;29.97;36.43;100329.38;5103303;28;20389;-78
2023/05/31 08:38:08;;;;;;;14.77;3.42;;;;;;;29.63;36.47;100309.19;5102338;28;20024;-78
2023/05/31 08:40:34;;;;;;;5.45;3.30;;;;;;;29.58;36.81;100327.66;5102378;28;20026;-78
2023/05/31 08:43:02;;;;;;;4.28;2.80;;;;;;;29.54;37.39;100321.78;5099626;28;20032;-78
2023/05/31 08:45:30;;;;;;;4.05;2.95;;;;;;;29.31;37.41;100302.13;5094521;28;20024;-78
2023/05/31 08:48:05;;;;;;;5.07;3.13;;;;;;;29.29;37.37;100309.53;5094241;28;20028;-78
2023/05/31 08:50:34;;;;;;;4.88;3.17;;;;;;;29.20;37.39;100322.16;5099898;28;20024;-78
2023/05/31 08:52:59;;;;;;;5.07;3.00;;;;;;;28.88;38.02;100300.84;5099318;28;20470;-78
2023/05/31 08:55:26;;;;;;;4.32;2.55;;;;;;;28.84;38.35;100311.06;5103975;28;20027;-77
2023/05/31 08:57:52;;;;;;;3.50;2.60;;;;;;;28.85;38.32;100320.78;5102221;28;20081;-77
2023/05/31 09:00:19;;;;;;;5.05;2.80;;;;;;;28.81;37.37;100317.59;5103917;28;20020;-78
2023/05/31 09:02:46;;;;;;;6.45;2.75;;;;;;;28.61;37.25;100316.31;5110300;28;20376;-78
2023/05/31 09:05:13;;;;;;;7.22;2.80;;;;;;;28.50;37.22;100314.03;5114982;28;20028;-78
2023/05/31 09:07:39;;;;;;;3.55;2.20;;;;;;;28.41;37.34;100328.47;5113908;28;20030;-77
2023/05/31 09:10:07;;;;;;;5.57;2.47;;;;;;;28.21;37.16;100311.88;5113199;28;20028;-77
2023/05/31 09:12:32;;;;;;;3.05;2.60;;;;;;;28.01;36.88;100298.00;5114679;28;20031;-77
2023/05/31 09:14:58;;;;;;;3.25;2.17;;;;;;;27.87;37.43;100312.06;5114522;28;20127;-78
2023/05/31 09:17:23;;;;;;;5.38;3.03;;;;;;;27.63;37.17;100297.63;5114413;28;20465;-77
2023/05/31 09:20:00;;;;;;;4.43;2.55;;;;;;;27.54;37.65;100318.19;5114478;28;20523;-77
2023/05/31 09:22:26;;;;;;;2.90;2.22;;;;;;;27.41;36.79;100312.47;5114589;28;20019;-77
2023/05/31 09:24:58;;;;;;;4.15;2.47;;;;;;;27.24;36.30;100313.44;5096649;28;20072;-77
2023/05/31 09:27:25;;;;;;;4.13;2.90;;;;;;;26.89;36.92;100298.44;5093524;28;20501;-77
2023/05/31 09:29:52;;;;;;;4.57;2.33;;;;;;;26.85;36.96;100312.13;5093300;28;20036;-77
2023/05/31 09:32:18;;;;;;;4.10;2.63;;;;;;;26.47;37.53;100305.41;5093656;28;20031;-77
2023/05/31 09:34:43;;;;;;;6.13;2.70;;;;;;;26.28;37.19;100298.41;5093352;28;20032;-77
2023/05/31 09:37:09;;;;;;;3.58;2.25;;;;;;;26.02;37.61;100306.41;5093569;28;20024;-77
2023/05/31 09:39:34;;;;;;;5.95;2.33;;;;;;;25.98;37.80;100307.69;5093732;28;20024;-77
2023/05/31 09:42:00;;;;;;;4.30;2.30;;;;;;;25.97;38.01;100299.88;5093417;28;20023;-77
2023/05/31 09:44:29;;;;;;;4.47;2.50;;;;;;;25.85;38.32;100293.94;5093416;28;20479;-77
2023/05/31 09:46:55;;;;;;;6.88;2.63;;;;;;;25.88;38.17;100285.63;5093537;28;20074;-77
2023/05/31 09:49:20;;;;;;;5.38;2.67;;;;;;;25.82;38.45;100272.88;5093646;28;20032;-77
2023/05/31 09:51:52;;;;;;;3.45;2.60;;;;;;;25.71;37.97;100273.94;5093655;28;20471;-77
2023/05/31 09:54:22;;;;;;;3.53;2.53;;;;;;;25.77;38.69;100281.34;5093469;28;20069;-77
2023/05/31 09:56:48;;;;;;;5.43;3.10;;;;;;;25.69;38.84;100273.25;5092898;28;20379;-77
2023/05/31 09:59:15;;;;;;;6.07;2.55;;;;;;;25.42;38.51;100271.50;5093522;28;20035;-77
2023/05/31 10:01:40;;;;;;;4.32;2.20;;;;;;;25.37;38.87;100287.97;5093399;28;20028;-77
2023/05/31 10:04:06;;;;;;;4.88;2.70;;;;;;;25.27;38.67;100259.69;5093361;28;20080;-77
2023/05/31 10:06:35;;;;;;;5.28;3.08;;;;;;;25.30;39.63;100270.06;5093241;28;20387;-77
2023/05/31 10:09:04;;;;;;;3.83;2.50;;;;;;;25.22;39.31;100276.13;5093007;28;20039;-77
2023/05/31 10:11:37;;;;;;;4.13;2.35;;;;;;;24.87;39.52;100277.72;5093007;28;20487;-77
2023/05/31 10:14:08;;;;;;;3.65;2.47;;;;;;;24.84;40.06;100279.84;5092783;28;20185;-77
2023/05/31 10:16:42;;;;;;;6.63;2.40;;;;;;;24.59;40.03;100265.38;5093102;28;20032;-77
2023/05/31 10:19:11;;;;;;;4.47;2.95;;;;;;;24.84;39.96;100282.50;5092933;28;20059;-77
2023/05/31 10:21:42;;;;;;;5.45;2.70;;;;;;;24.74;40.07;100260.41;5092216;28;20048;-77
2023/05/31 10:24:13;;;;;;;4.20;3.00;;;;;;;24.71;39.93;100255.38;5092965;28;20434;-77
2023/05/31 10:26:51;;;;;;;5.82;3.55;;;;;;;24.78;40.01;100270.63;5092990;28;20379;-77
2023/05/31 10:29:21;;;;;;;4.93;2.60;;;;;;;24.68;40.42;100256.50;5092633;28;20028;-77
2023/05/31 10:31:49;;;;;;;4.35;2.85;;;;;;;24.87;40.50;100266.22;5092485;28;20032;-77
2023/05/31 10:34:25;;;;;;;4.97;2.35;;;;;;;25.05;40.08;100279.59;5092663;28;20026;-77
2023/05/31 10:36:55;;;;;;;4.70;2.53;;;;;;;24.73;39.33;100267.53;5092597;28;20349;-76
2023/05/31 10:39:58;;;;;;;4.70;2.60;;;;;;;24.57;40.02;100262.88;5092615;28;20107;-77
2023/05/31 10:42:33;;;;;;;4.95;3.00;;;;;;;24.60;40.95;100245.72;5092542;28;20028;-77
2023/05/31 10:45:12;;;;;;;5.03;3.00;;;;;;;24.92;40.85;100263.09;5096951;28;20130;-77
2023/05/31 10:47:56;;;;;;;4.20;2.45;;;;;;;24.91;39.97;100254.28;5096912;28;20031;-77
2023/05/31 10:50:23;;;;;;;5.20;2.65;;;;;;;24.95;39.35;100237.00;5102238;28;20023;-77
2023/05/31 10:52:52;;;;;;;7.38;2.75;;;;;;;24.90;39.50;100239.25;5100154;28;20050;-77
2023/05/31 10:55:17;;;;;;;5.15;2.58;;;;;;;24.92;39.36;100263.94;5100457;28;20023;-77
2023/05/31 10:57:43;;;;;;;4.70;2.80;;;;;;;24.60;39.96;100233.25;5102093;28;20031;-77
2023/05/31 11:00:11;;;;;;;6.03;2.60;;;;;;;24.63;39.85;100242.78;5100773;28;20026;-77
2023/05/31 11:02:49;;;;;;;3.38;2.63;;;;;;;24.54;39.07;100255.16;5100731;28;20038;-77
2023/05/31 11:05:24;;;;;;;3.72;2.17;;;;;;;24.61;39.28;100248.25;5067963;28;20093;-77
2023/05/31 11:07:50;;;;;;;3.40;2.22;;;;;;;24.70;40.31;100241.22;5112509;28;20035;-77
2023/05/31 11:10:31;;;;;;;7.15;2.50;;;;;;;24.78;40.30;100220.00;5106169;28;20024;-77
2023/05/31 11:13:01;;;;;;;4.82;2.63;;;;;;;25.06;38.95;100244.78;5110920;28;20031;-77
2023/05/31 11:15:40;;;;;;;2.78;2.42;;;;;;;25.04;37.88;100240.59;5112329;28;20085;-77
2023/05/31 11:18:09;;;;;;;2.42;2.22;;;;;;;24.90;38.61;100220.59;5112148;28;20051;-77
2023/05/31 11:20:35;;;;;;;2.80;2.47;;;;;;;25.09;38.32;100241.84;5112489;28;20106;-77
2023/05/31 11:23:31;;;;;;;5.18;2.70;;;;;;;25.13;37.91;100239.72;5112282;28;20031;-77